Elm Grove, West Virginia
Current Conditions -  °F | °C
As of 12:53 AM on Monday 20 Oct 2014 (Local Time) from KHLG Reporting Station
Clear Clear  
Wind Chill: 38°   Ceiling: Unl
Heat Index: 43°   Visibility: 10mi
Dew Point: 34°   Wind: 8mph
Humidity: 71%   Direction: 180°S
Pressure: 30.06"   Gusts: NA
Location:  40.0729°N, 80.6524°W
Report Text: KHLG 200453Z AUTO 18007KT 10SM CLR 06/01 A3006 RMK AO2 SLP186 T00610011 401220044
Loading
Personal Weather Stations






























Interactive Weather Map
Tropical Storm Tracking
New forecast layout! Learn more

10-Day Weather Forecast

Advertisements
Track Severe Weather on mobile